Clarion, IA

11:45 CDT le 25 octobre 2014 (GMT -0500)
Clarion Municipal | Change Station
CLOSE
Current Station
Aéroport
Location: Clarion,
Altitude: 1161 ft
Stations météo à proximité

Alt. 1161 ft 42.74 °N, 93.76 °W | Updated 10 minutes ago

Clear
Ciel dégagé
63 ° F
Paraît 63 ° F
N
10
Vent Variable Vent de Nord

Aujourd'hui
Haut(e) -- | Bas -- ° F
--% Risque de précip.
Hier
Haut(e) -- | Bas -- ° F
Precip. -- pouce
7:40 AM 6:17 PM
Lune montante, 3% visible
Pression 30.11 pouce
Visibilité 10.0 Miles terrestres
Nuages Ciel dégagé
Point de rosée 39 ° F
Humidité 42%
Précipitations 0.00 pouce
Profondeur de la couche neigeuse Non disponible.
UV 3 sur 12
Pollen 1.40 sur 12
Qualité de l'air Non disponible.
Flu Activity Sporadic
METAR KCAV 251635Z AUTO 35009KT 10SM CLR 17/04 A3011 RMK AO2

More Conditions Fewer Conditions

Pression 30.11 pouce
Visibilité 10.0 Miles terrestres
Nuages Ciel dégagé
Point de rosée 39 ° F
Humidité 42%
Précipitations 0.00 pouce
Profondeur de la couche neigeuse Non disponible.
UV 3 sur 12
Pollen 1.40 sur 12
Qualité de l'air Non disponible.
Flu Activity Sporadic
METAR KCAV 251635Z AUTO 35009KT 10SM CLR 17/04 A3011 RMK AO2

More Conditions Fewer Conditions

10-Day Weather Forecast

Almanac

Astronomie

Oct. 25, 2014 Lever Coucher
Temps réel 07:40 CDT 18:17 CDT
Crépuscule civil 07:11 CDT 18:46 CDT
Crépuscule nautique 06:38 CDT 19:19 CDT
Crépuscule astronomique 06:05 CDT 19:51 CDT
Lune 09:21 CDT 19:38 CDT
Durée de lumière visible 11h 34m
Longueur du jour
10h 36m
Tomorrow will be 2m 40s shorter.
Lune montante, 3% of the Moon is Illuminated
Aujourd'hui
Lune montante
Oct 30
Premier quartier
Nov 6
Pleine lune
Nov 14
Dernier quartier
Nov 22
Nouveau

Extrêmes aujourd'hui

State Highs State Lows

Community

WunderPhotos

Upload Photos

1,764,901 Photos téléchargées !

Nearby

Épaisseur de neige

Station Depth Altitude
Pas de nouvelles chutes de neige

Activité sismique

Ville Distance Mag. Time & Date
No recent earthquake activity has been reported nearby.
Minimum magnitude displayed is 2.5.

Températures des eaux côtières

Lieu Température
Aucun rapport de station

Stations météo à proximité